createdAt,value
2018-01-25T00:02:15.947Z,2.80
2018-01-25T00:04:42.518Z,2.50
2018-01-25T00:07:09.100Z,2.67
2018-01-25T00:09:35.692Z,3.00
2018-01-25T00:12:02.266Z,2.60
2018-01-25T00:14:28.834Z,1.73
2018-01-25T00:16:55.531Z,2.57
2018-01-25T00:19:22.109Z,2.37
2018-01-25T00:21:48.675Z,2.90
2018-01-25T00:24:15.635Z,2.20
2018-01-25T00:26:42.203Z,2.40
2018-01-25T00:29:08.780Z,2.30
2018-01-25T00:31:35.379Z,3.50
2018-01-25T00:34:01.943Z,2.90
2018-01-25T00:36:28.520Z,2.77
2018-01-25T00:38:55.931Z,2.60
2018-01-25T00:41:22.505Z,2.73
2018-01-25T00:43:49.063Z,2.87
2018-01-25T00:46:15.687Z,2.50
2018-01-25T00:48:42.255Z,2.73
2018-01-25T00:51:08.832Z,4.90
2018-01-25T00:53:35.408Z,2.83
2018-01-25T00:56:01.995Z,2.70
2018-01-25T00:58:28.567Z,5.00
2018-01-25T01:00:55.136Z,2.20
2018-01-25T01:03:21.722Z,3.83
2018-01-25T01:05:48.299Z,2.67
2018-01-25T01:08:14.867Z,3.07
2018-01-25T01:10:41.715Z,2.53
2018-01-25T01:13:08.279Z,2.13
2018-01-25T01:15:34.851Z,2.63
2018-01-25T01:18:01.447Z,2.33
2018-01-25T01:20:28.020Z,2.17
2018-01-25T01:22:54.596Z,1.97
2018-01-25T01:25:21.189Z,3.13
2018-01-25T01:27:47.756Z,3.00
2018-01-25T01:30:14.332Z,1.83
2018-01-25T01:32:40.915Z,2.30
2018-01-25T01:35:07.487Z,1.80
2018-01-25T01:37:34.055Z,2.10
2018-01-25T01:40:00.947Z,2.17
2018-01-25T01:42:27.507Z,2.30
2018-01-25T01:44:54.084Z,1.87
2018-01-25T01:47:20.664Z,2.10
2018-01-25T01:49:47.231Z,2.47
2018-01-25T01:52:14.739Z,1.77
2018-01-25T01:54:41.312Z,1.90
2018-01-25T01:57:07.876Z,2.00
2018-01-25T01:59:34.571Z,2.00
2018-01-25T02:02:01.139Z,2.20
2018-01-25T02:04:27.735Z,2.10
2018-01-25T02:06:54.583Z,2.60
2018-01-25T02:09:21.155Z,2.10
2018-01-25T02:11:47.734Z,2.97
2018-01-25T02:14:14.323Z,3.67
2018-01-25T02:16:40.900Z,2.67
2018-01-25T02:19:07.474Z,3.00
2018-01-25T02:21:34.066Z,2.10
2018-01-25T02:24:00.639Z,2.10
2018-01-25T02:26:27.208Z,3.97
2018-01-25T02:28:53.778Z,2.10
2018-01-25T02:31:20.355Z,2.47
2018-01-25T02:33:46.931Z,3.73
2018-01-25T02:36:13.759Z,2.57
2018-01-25T02:38:40.327Z,3.53
2018-01-25T02:41:06.899Z,2.20
2018-01-25T02:43:33.490Z,2.30
2018-01-25T02:46:00.064Z,6.90
2018-01-25T02:48:26.651Z,2.83
2018-01-25T02:50:53.264Z,2.57
2018-01-25T02:53:19.832Z,2.90
2018-01-25T02:55:46.406Z,2.20
2018-01-25T02:58:13.004Z,3.43
2018-01-25T03:00:39.574Z,2.13
2018-01-25T03:03:06.142Z,3.13
2018-01-25T03:05:32.727Z,2.57
2018-01-25T03:07:59.298Z,4.40
2018-01-25T03:10:25.868Z,3.67
2018-01-25T03:12:52.447Z,3.73
2018-01-25T03:15:19.019Z,3.20
2018-01-25T03:17:45.595Z,2.73
2018-01-25T03:20:12.191Z,3.30
2018-01-25T03:22:38.770Z,4.03
2018-01-25T03:25:05.348Z,4.10
2018-01-25T03:27:32.028Z,3.20
2018-01-25T03:29:58.594Z,2.43
2018-01-25T03:32:25.172Z,5.90
2018-01-25T03:34:51.780Z,4.03
2018-01-25T03:37:18.346Z,3.10
2018-01-25T03:39:44.911Z,3.83
2018-01-25T03:42:11.479Z,4.67
2018-01-25T03:44:38.348Z,2.33
2018-01-25T03:47:04.914Z,5.40
2018-01-25T03:49:31.483Z,4.70
2018-01-25T03:51:58.062Z,3.90
2018-01-25T03:54:24.632Z,4.40
2018-01-25T03:56:51.215Z,3.87
2018-01-25T03:59:17.818Z,7.90
2018-01-25T04:01:44.399Z,2.50
2018-01-25T04:04:10.974Z,5.73
2018-01-25T04:06:37.563Z,4.00
2018-01-25T04:09:04.130Z,3.70
2018-01-25T04:11:31.047Z,4.97
2018-01-25T04:13:57.642Z,8.00
2018-01-25T04:16:24.213Z,3.93
2018-01-25T04:18:50.782Z,3.73
2018-01-25T04:21:17.677Z,5.77
2018-01-25T04:23:44.255Z,6.13
2018-01-25T04:26:10.826Z,6.40
2018-01-25T04:28:37.405Z,9.07
2018-01-25T04:31:03.967Z,5.73
2018-01-25T04:33:30.538Z,6.00
2018-01-25T04:35:57.286Z,5.10
2018-01-25T04:38:23.926Z,6.20
2018-01-25T04:40:50.499Z,5.97
2018-01-25T04:43:17.185Z,5.10
2018-01-25T04:45:43.745Z,5.60
2018-01-25T04:48:10.319Z,5.70
2018-01-25T04:50:36.959Z,7.47
2018-01-25T04:53:03.520Z,6.40
2018-01-25T04:55:30.091Z,5.70
2018-01-25T04:57:56.675Z,8.30
2018-01-25T05:00:23.248Z,6.20
2018-01-25T05:02:49.817Z,8.03
2018-01-25T05:05:16.719Z,6.43
2018-01-25T05:07:43.290Z,8.37
2018-01-25T05:10:09.856Z,7.60
2018-01-25T05:12:36.446Z,17.30
2018-01-25T05:15:03.020Z,8.33
2018-01-25T05:17:36.178Z,11.67
2018-01-25T05:20:02.757Z,8.23
2018-01-25T05:22:29.327Z,7.57
2018-01-25T05:24:55.899Z,11.10
2018-01-25T05:27:22.491Z,11.30
2018-01-25T05:29:49.059Z,7.50
2018-01-25T05:32:15.634Z,7.00
2018-01-25T05:34:42.225Z,7.30
2018-01-25T05:37:08.801Z,10.87
2018-01-25T05:39:35.366Z,6.63
2018-01-25T05:42:01.960Z,9.73
2018-01-25T05:44:28.522Z,7.63
2018-01-25T05:46:55.094Z,6.13
2018-01-25T05:49:21.787Z,8.83
2018-01-25T05:51:48.355Z,8.53
2018-01-25T05:54:14.924Z,10.27
2018-01-25T05:56:41.498Z,14.80
2018-01-25T05:59:08.064Z,7.20
2018-01-25T06:01:35.203Z,12.60
2018-01-25T06:04:01.771Z,7.10
2018-01-25T06:06:28.335Z,9.80
2018-01-25T06:08:54.914Z,10.23
2018-01-25T06:11:21.534Z,13.50
2018-01-25T06:13:48.102Z,11.23
2018-01-25T06:16:14.684Z,13.53
2018-01-25T06:18:41.273Z,10.77
2018-01-25T06:21:07.844Z,12.47
2018-01-25T06:23:34.418Z,15.50
2018-01-25T06:26:01.251Z,14.30
2018-01-25T06:28:27.823Z,10.80
2018-01-25T06:30:54.406Z,11.93
2018-01-25T06:33:21.058Z,13.00
2018-01-25T06:35:47.586Z,16.97
2018-01-25T06:38:14.158Z,13.07
2018-01-25T06:40:40.750Z,12.60
2018-01-25T06:43:07.327Z,14.10
2018-01-25T06:45:33.930Z,17.40
2018-01-25T06:48:00.509Z,11.70
2018-01-25T06:50:27.091Z,13.50
2018-01-25T06:52:53.678Z,14.27
2018-01-25T06:55:20.246Z,12.30
2018-01-25T06:57:46.835Z,14.37
2018-01-25T07:00:13.451Z,14.40
2018-01-25T07:02:40.023Z,13.27
2018-01-25T07:05:06.603Z,17.63
2018-01-25T07:07:33.187Z,13.30
2018-01-25T07:09:59.754Z,18.00
2018-01-25T07:12:26.323Z,12.47
2018-01-25T07:14:53.074Z,14.40
2018-01-25T07:17:19.656Z,13.80
2018-01-25T07:19:46.227Z,12.83
2018-01-25T07:22:12.811Z,14.10
2018-01-25T07:24:39.391Z,14.77
2018-01-25T07:27:06.267Z,14.87
2018-01-25T07:29:32.841Z,12.70
2018-01-25T07:31:59.417Z,11.67
2018-01-25T07:34:26.003Z,14.13
2018-01-25T07:36:52.572Z,14.80
2018-01-25T07:39:19.150Z,14.40
2018-01-25T07:41:45.744Z,14.97
2018-01-25T07:44:12.319Z,15.10
2018-01-25T07:46:38.890Z,13.63
2018-01-25T07:49:06.422Z,18.50
2018-01-25T07:51:32.976Z,19.30
2018-01-25T07:53:59.550Z,12.67
2018-01-25T07:56:26.358Z,15.27
2018-01-25T07:58:52.930Z,18.73
2018-01-25T08:01:19.498Z,10.60
2018-01-25T08:03:46.083Z,12.10
2018-01-25T08:06:12.667Z,14.90
2018-01-25T08:08:39.249Z,15.07
2018-01-25T08:11:05.819Z,16.70
2018-01-25T08:13:38.190Z,11.97
2018-01-25T08:16:10.486Z,13.90
2018-01-25T08:18:37.056Z,20.17
2018-01-25T08:21:03.631Z,13.80
2018-01-25T08:23:30.202Z,14.13
2018-01-25T08:25:56.779Z,16.37
2018-01-25T08:28:23.483Z,12.17
2018-01-25T08:30:50.060Z,17.50
2018-01-25T08:33:16.638Z,19.60
2018-01-25T08:35:43.238Z,14.30
2018-01-25T08:38:09.822Z,18.23
2018-01-25T08:40:36.402Z,17.50
2018-01-25T08:43:03.232Z,15.27
2018-01-25T08:45:29.805Z,15.20
2018-01-25T08:47:56.376Z,17.37
2018-01-25T08:50:22.966Z,17.60
2018-01-25T08:52:49.544Z,19.07
2018-01-25T08:55:16.116Z,15.40
2018-01-25T08:57:42.703Z,17.50
2018-01-25T09:00:09.278Z,20.50
2018-01-25T09:02:35.851Z,11.70
2018-01-25T09:05:02.433Z,19.43
2018-01-25T09:07:29.002Z,22.37
2018-01-25T09:09:55.582Z,18.67
2018-01-25T09:12:22.170Z,11.00
2018-01-25T09:14:48.755Z,15.27
2018-01-25T09:17:15.326Z,14.10
2018-01-25T09:19:41.919Z,15.13
2018-01-25T09:22:08.488Z,15.83
2018-01-25T09:24:35.054Z,14.37
2018-01-25T09:27:01.819Z,14.80
2018-01-25T09:29:28.400Z,13.47
2018-01-25T09:31:54.972Z,15.83
2018-01-25T09:34:21.574Z,14.20
2018-01-25T09:36:48.152Z,16.70
2018-01-25T09:39:14.734Z,16.97
2018-01-25T09:41:41.319Z,19.30
2018-01-25T09:44:07.905Z,12.63
2018-01-25T09:46:34.487Z,14.10
2018-01-25T09:49:01.071Z,17.47
2018-01-25T09:51:27.955Z,24.50
2018-01-25T09:53:54.324Z,20.33
2018-01-25T09:56:20.900Z,14.07
2018-01-25T09:58:47.505Z,16.00
2018-01-25T10:01:14.082Z,13.40
2018-01-25T10:03:40.666Z,11.43
2018-01-25T10:06:07.247Z,17.50
2018-01-25T10:08:33.814Z,13.83
2018-01-25T10:11:00.411Z,11.33
2018-01-25T10:13:26.987Z,13.47
2018-01-25T10:15:53.567Z,15.03
2018-01-25T10:18:20.351Z,12.17
2018-01-25T10:20:46.923Z,11.40
2018-01-25T10:23:13.494Z,10.07
2018-01-25T10:25:40.067Z,14.47
2018-01-25T10:28:06.644Z,18.47
2018-01-25T10:30:33.219Z,11.03
2018-01-25T10:32:59.820Z,18.20
2018-01-25T10:35:26.401Z,12.57
2018-01-25T10:37:52.975Z,13.97
2018-01-25T10:40:19.561Z,14.20
2018-01-25T10:42:46.139Z,15.30
2018-01-25T10:45:12.719Z,16.40
2018-01-25T10:47:39.409Z,19.87
2018-01-25T10:50:05.990Z,19.73
2018-01-25T10:52:32.563Z,15.33
2018-01-25T10:54:59.243Z,15.43
2018-01-25T10:57:25.815Z,14.17
2018-01-25T10:59:52.390Z,17.60
2018-01-25T11:02:20.117Z,23.93
2018-01-25T11:04:46.691Z,14.10
2018-01-25T11:07:13.266Z,17.43
2018-01-25T11:09:39.863Z,16.30
2018-01-25T11:12:06.442Z,18.43
2018-01-25T11:14:33.007Z,13.27
2018-01-25T11:16:59.595Z,21.97
2018-01-25T11:19:26.175Z,20.93
2018-01-25T11:21:52.757Z,18.83
2018-01-25T11:24:19.340Z,19.37
2018-01-25T11:26:46.041Z,15.10
2018-01-25T11:29:12.615Z,23.70
2018-01-25T11:31:39.298Z,17.90
2018-01-25T11:34:05.836Z,16.80
2018-01-25T11:36:32.422Z,20.00
2018-01-25T11:38:59.003Z,16.90
2018-01-25T11:41:25.590Z,18.30
2018-01-25T11:43:52.175Z,22.23
2018-01-25T11:46:18.756Z,16.70
2018-01-25T11:48:45.350Z,20.03
2018-01-25T11:51:11.927Z,13.93
2018-01-25T11:53:38.506Z,16.47
2018-01-25T11:56:05.382Z,19.97
2018-01-25T11:58:31.959Z,23.40
2018-01-25T12:00:58.535Z,18.70
2018-01-25T12:03:25.115Z,17.60
2018-01-25T12:05:51.715Z,15.23
2018-01-25T12:08:18.288Z,14.17
2018-01-25T12:10:44.870Z,17.33
2018-01-25T12:13:11.453Z,15.10
2018-01-25T12:15:38.026Z,16.87
2018-01-25T12:18:04.602Z,18.77
2018-01-25T12:20:31.212Z,17.17
2018-01-25T12:22:57.791Z,13.43
2018-01-25T12:25:24.373Z,14.50
2018-01-25T12:27:50.942Z,14.03
2018-01-25T12:30:17.543Z,18.17
2018-01-25T12:32:44.123Z,12.50
2018-01-25T12:35:10.699Z,20.43
2018-01-25T12:37:37.281Z,16.53
2018-01-25T12:40:03.855Z,11.50
2018-01-25T12:42:30.427Z,12.80
2018-01-25T12:44:57.011Z,15.20
2018-01-25T12:47:23.584Z,15.47
2018-01-25T12:49:50.155Z,15.43
2018-01-25T12:52:17.092Z,13.93
2018-01-25T12:54:43.659Z,15.40
2018-01-25T12:57:10.232Z,11.40
2018-01-25T12:59:37.099Z,15.07
2018-01-25T13:02:03.709Z,15.50
2018-01-25T13:04:30.242Z,10.63
2018-01-25T13:06:56.843Z,14.07
2018-01-25T13:09:23.523Z,11.70
2018-01-25T13:11:50.074Z,10.83
2018-01-25T13:14:16.654Z,19.53
2018-01-25T13:16:43.235Z,14.80
2018-01-25T13:19:09.833Z,18.60
2018-01-25T13:21:36.398Z,15.37
2018-01-25T13:24:02.972Z,12.50
2018-01-25T13:26:29.779Z,16.20
2018-01-25T13:28:56.377Z,17.10
2018-01-25T13:31:22.946Z,15.97
2018-01-25T13:33:49.517Z,19.10
2018-01-25T13:36:16.439Z,14.17
2018-01-25T13:38:43.019Z,19.37
2018-01-25T13:41:09.597Z,14.30
2018-01-25T13:43:36.191Z,24.83
2018-01-25T13:46:02.766Z,18.37
2018-01-25T13:48:29.352Z,19.73
2018-01-25T13:50:55.938Z,17.77
2018-01-25T13:53:22.807Z,18.67
2018-01-25T13:55:49.382Z,23.67
2018-01-25T13:58:15.964Z,14.73
2018-01-25T14:00:42.902Z,25.40
2018-01-25T14:03:09.479Z,15.70
2018-01-25T14:05:36.060Z,20.97
2018-01-25T14:08:02.812Z,22.23
2018-01-25T14:10:29.391Z,22.53
2018-01-25T14:12:55.972Z,17.93
2018-01-25T14:15:22.570Z,28.23
2018-01-25T14:17:49.154Z,23.30
2018-01-25T14:20:15.792Z,22.47
2018-01-25T14:22:42.322Z,19.80
2018-01-25T14:25:08.894Z,18.43
2018-01-25T14:27:35.481Z,18.07
2018-01-25T14:30:02.235Z,20.40
2018-01-25T14:32:28.820Z,18.00
2018-01-25T14:34:55.387Z,19.27
2018-01-25T14:37:22.335Z,24.47
2018-01-25T14:39:48.917Z,20.73
2018-01-25T14:42:15.491Z,19.47
2018-01-25T14:44:42.070Z,24.63
2018-01-25T14:47:08.646Z,20.60
2018-01-25T14:49:35.230Z,22.97
2018-01-25T14:52:01.814Z,23.73
2018-01-25T14:54:28.394Z,23.27
2018-01-25T14:56:54.975Z,16.10
2018-01-25T14:59:21.662Z,16.67
2018-01-25T15:01:48.244Z,19.53
2018-01-25T15:04:14.823Z,19.03
2018-01-25T15:06:41.403Z,20.27
2018-01-25T15:09:08.195Z,17.97
2018-01-25T15:11:34.774Z,21.03
2018-01-25T15:14:01.351Z,22.43
2018-01-25T15:16:27.955Z,21.63
2018-01-25T15:18:54.536Z,22.53
2018-01-25T15:21:21.115Z,28.40
2018-01-25T15:23:48.019Z,21.50
2018-01-25T15:26:21.139Z,22.30
2018-01-25T15:28:47.743Z,24.27
2018-01-25T15:31:14.315Z,17.00
2018-01-25T15:33:40.904Z,29.17
2018-01-25T15:36:07.502Z,23.43
2018-01-25T15:38:34.088Z,22.77
2018-01-25T15:41:00.671Z,22.83
2018-01-25T15:43:27.271Z,21.33
2018-01-25T15:45:53.857Z,19.50
2018-01-25T15:48:20.427Z,20.77
2018-01-25T15:50:47.250Z,19.73
2018-01-25T15:53:13.832Z,18.10
2018-01-25T15:55:40.418Z,18.20
2018-01-25T15:58:07.019Z,20.67
2018-01-25T16:00:33.586Z,21.03
2018-01-25T16:03:00.167Z,25.03
2018-01-25T16:05:26.971Z,16.80
2018-01-25T16:07:53.544Z,17.63
2018-01-25T16:10:20.120Z,19.47
2018-01-25T16:12:46.714Z,22.80
2018-01-25T16:15:13.294Z,22.67
2018-01-25T16:17:39.870Z,14.80
2018-01-25T16:20:06.452Z,23.80
2018-01-25T16:22:33.030Z,22.40
2018-01-25T16:24:59.627Z,22.90
2018-01-25T16:27:26.204Z,16.70
2018-01-25T16:29:52.791Z,24.50
2018-01-25T16:32:19.371Z,23.63
2018-01-25T16:34:45.956Z,18.53
2018-01-25T16:37:12.530Z,19.57
2018-01-25T16:39:39.115Z,24.03
2018-01-25T16:42:05.985Z,25.00
2018-01-25T16:44:32.570Z,19.57
2018-01-25T16:46:59.151Z,23.50
2018-01-25T16:49:26.354Z,19.47
2018-01-25T16:51:52.934Z,22.00
2018-01-25T16:54:19.515Z,20.30
2018-01-25T16:56:46.115Z,26.07
2018-01-25T16:59:12.690Z,23.93
2018-01-25T17:01:39.279Z,24.90
2018-01-25T17:04:05.859Z,21.33
2018-01-25T17:06:32.435Z,24.70
2018-01-25T17:08:59.118Z,24.23
2018-01-25T17:11:25.706Z,25.67
2018-01-25T17:13:52.279Z,24.80
2018-01-25T17:16:18.878Z,24.67
2018-01-25T17:18:45.454Z,21.70
2018-01-25T17:21:12.040Z,23.00
2018-01-25T17:23:38.646Z,24.93
2018-01-25T17:26:05.228Z,32.37
2018-01-25T17:28:31.809Z,23.93
2018-01-25T17:30:58.395Z,32.60
2018-01-25T17:33:24.970Z,23.03
2018-01-25T17:35:51.574Z,27.27
2018-01-25T17:38:18.155Z,23.00
2018-01-25T17:40:44.734Z,29.63
2018-01-25T17:43:11.318Z,22.70
2018-01-25T17:45:38.010Z,23.03
2018-01-25T17:48:04.589Z,22.47
2018-01-25T17:50:31.175Z,21.13
2018-01-25T17:52:57.790Z,23.07
2018-01-25T17:55:24.368Z,28.43
2018-01-25T17:57:50.944Z,24.87
2018-01-25T18:00:17.532Z,26.00
2018-01-25T18:02:44.103Z,25.17
2018-01-25T18:05:10.684Z,23.47
2018-01-25T18:07:37.264Z,26.40
2018-01-25T18:10:03.881Z,22.70
2018-01-25T18:12:30.465Z,26.87
2018-01-25T18:14:57.035Z,21.83
2018-01-25T18:17:23.612Z,31.87
2018-01-25T18:19:50.502Z,24.23
2018-01-25T18:22:17.086Z,26.80
2018-01-25T18:24:43.658Z,28.53
2018-01-25T18:27:10.243Z,25.13
2018-01-25T18:29:36.816Z,27.87
2018-01-25T18:32:03.392Z,26.03
2018-01-25T18:34:29.997Z,29.17
2018-01-25T18:36:56.571Z,29.13
2018-01-25T18:39:23.153Z,23.10
2018-01-25T18:41:49.742Z,25.60
2018-01-25T18:44:16.318Z,23.67
2018-01-25T18:46:42.899Z,29.33
2018-01-25T18:49:09.523Z,26.73
2018-01-25T18:51:36.108Z,25.33
2018-01-25T18:54:02.683Z,32.57
2018-01-25T18:56:29.535Z,36.00
2018-01-25T18:58:56.111Z,30.10
2018-01-25T19:01:22.686Z,29.73
2018-01-25T19:03:49.648Z,29.80
2018-01-25T19:06:16.235Z,30.77
2018-01-25T19:08:42.811Z,24.53
2018-01-25T19:11:09.392Z,33.50
2018-01-25T19:13:35.971Z,30.93
2018-01-25T19:16:02.555Z,30.20
2018-01-25T19:18:29.122Z,34.80
2018-01-25T19:20:55.711Z,29.23
2018-01-25T19:23:22.634Z,28.67
2018-01-25T19:25:49.208Z,29.90
2018-01-25T19:28:15.813Z,36.23
2018-01-25T19:30:42.390Z,29.03
2018-01-25T19:33:08.962Z,36.13
2018-01-25T19:35:35.719Z,25.50
2018-01-25T19:38:02.551Z,30.77
2018-01-25T19:40:29.126Z,28.50
2018-01-25T19:42:55.711Z,31.60
2018-01-25T19:45:22.296Z,26.07
2018-01-25T19:47:48.884Z,31.10
2018-01-25T19:50:15.462Z,27.27
2018-01-25T19:52:42.354Z,26.67
2018-01-25T19:55:09.218Z,30.80
2018-01-25T19:57:35.807Z,28.80
2018-01-25T20:00:02.412Z,26.97
2018-01-25T20:02:28.996Z,35.90
2018-01-25T20:04:55.566Z,34.27
2018-01-25T20:07:22.174Z,24.60
2018-01-25T20:09:48.760Z,31.10
2018-01-25T20:12:15.344Z,34.10
2018-01-25T20:14:41.927Z,30.80
2018-01-25T20:17:08.508Z,29.70
2018-01-25T20:19:35.103Z,32.03
2018-01-25T20:22:01.684Z,30.60
2018-01-25T20:24:28.530Z,28.47
2018-01-25T20:26:55.118Z,34.07
2018-01-25T20:29:21.702Z,29.80
2018-01-25T20:31:48.283Z,35.37
2018-01-25T20:34:14.869Z,30.03
2018-01-25T20:36:41.467Z,29.07
2018-01-25T20:39:08.049Z,34.47
2018-01-25T20:41:34.646Z,33.37
2018-01-25T20:44:01.548Z,35.47
2018-01-25T20:46:28.085Z,25.10
2018-01-25T20:48:54.786Z,29.93
2018-01-25T20:51:21.388Z,30.60
2018-01-25T20:53:47.971Z,24.63
2018-01-25T20:56:14.554Z,31.30
2018-01-25T20:58:41.167Z,25.00
2018-01-25T21:01:07.792Z,28.20
2018-01-25T21:03:34.407Z,33.43
2018-01-25T21:06:01.355Z,31.97
2018-01-25T21:08:27.953Z,26.53
2018-01-25T21:10:54.532Z,27.90
2018-01-25T21:13:21.468Z,28.20
2018-01-25T21:15:48.043Z,25.93
2018-01-25T21:18:14.642Z,28.77
2018-01-25T21:20:41.241Z,30.67
2018-01-25T21:23:08.114Z,31.40
2018-01-25T21:25:34.729Z,31.10
2018-01-25T21:28:01.324Z,30.80
2018-01-25T21:30:27.920Z,26.93
2018-01-25T21:32:54.512Z,27.47
2018-01-25T21:35:21.086Z,32.97
2018-01-25T21:37:47.710Z,29.03
2018-01-25T21:40:14.311Z,34.10
2018-01-25T21:42:40.899Z,31.70
2018-01-25T21:45:07.479Z,30.33
2018-01-25T21:47:34.254Z,25.57
2018-01-25T21:50:00.838Z,27.37
2018-01-25T21:52:27.421Z,28.30
2018-01-25T21:54:54.040Z,25.60
2018-01-25T21:57:20.619Z,32.67
2018-01-25T21:59:47.218Z,28.33
2018-01-25T22:02:13.828Z,32.27
2018-01-25T22:04:40.424Z,29.73
2018-01-25T22:07:07.016Z,31.00
2018-01-25T22:09:33.599Z,23.37
2018-01-25T22:12:00.190Z,25.97
2018-01-25T22:14:26.785Z,25.50
2018-01-25T22:16:53.364Z,23.70
2018-01-25T22:19:19.949Z,28.60
2018-01-25T22:21:46.758Z,31.87
2018-01-25T22:24:13.368Z,32.43
2018-01-25T22:29:06.542Z,34.33
2018-01-25T22:31:33.114Z,25.00
2018-01-25T22:33:59.926Z,24.97
2018-01-25T22:36:26.511Z,30.13
2018-01-25T22:38:53.092Z,32.40
2018-01-25T22:41:20.051Z,24.33
2018-01-25T22:43:46.654Z,30.53
2018-01-25T22:46:13.246Z,26.63
2018-01-25T22:48:39.928Z,24.80
2018-01-25T22:51:06.506Z,26.00
2018-01-25T22:53:33.092Z,27.93
2018-01-25T22:55:59.688Z,25.47
2018-01-25T22:58:26.276Z,31.47
2018-01-25T23:00:52.868Z,26.67
2018-01-25T23:03:19.466Z,30.53
2018-01-25T23:05:46.054Z,26.50
2018-01-25T23:08:12.672Z,28.93
2018-01-25T23:10:39.259Z,29.20
2018-01-25T23:13:05.846Z,26.47
2018-01-25T23:15:32.446Z,33.80
2018-01-25T23:17:59.040Z,27.63
2018-01-25T23:20:25.612Z,26.43
2018-01-25T23:22:52.970Z,32.73
2018-01-25T23:25:19.548Z,29.57
2018-01-25T23:27:46.130Z,34.60
2018-01-25T23:30:12.731Z,24.37
2018-01-25T23:32:39.312Z,24.83
2018-01-25T23:35:05.885Z,28.60
2018-01-25T23:37:32.759Z,27.23
2018-01-25T23:39:59.335Z,28.73
2018-01-25T23:42:25.911Z,29.40
2018-01-25T23:44:52.510Z,32.70
2018-01-25T23:47:19.097Z,28.13
2018-01-25T23:49:45.674Z,29.57
2018-01-25T23:52:12.283Z,25.00
2018-01-25T23:54:38.866Z,25.83
2018-01-25T23:57:05.449Z,26.27
2018-01-25T23:59:32.073Z,30.70
